Terminal Aerodrome Forecast
Issued by NWS Charleston, WV

Home | Current Version | Previous Version | Text Only | Print | Product List | Glossary On
Versions: 1 2 3 4 5 6 7 8 9 10 11 12 13 14 15 16 17 18 19 20 21 22 23 24
000
FTUS41 KRLX 250800 AAA
TAFHTS
TAF AMD
KHTS 250807Z 2508/2606 25009KT P6SM SCT025 OVC060
     FM250900 25009G15KT P6SM BKN015
     FM251500 24009G15KT P6SM BKN035
     FM251800 23007KT P6SM SCT050
     FM252300 VRB03KT P6SM FEW060=

USA.gov is the U.S. government's official web portal to all federal, state and local government web resources and services.